»·PEaware :: N6182G KNFG-KBUR

N6182G :: KNFG-KBUR

FLIGHT INFORMATION

Flight Status: Arrived
Operator: Privately registered:
United States
More flights under this callsign
Pilot: Paul A. (20189)
Aircraft: CESSNA 182 SKYLANE
(C182)
More flights by this aircraft type
Origin: KNFG Camp Pendleton MCAS
United States
Destination: KBUR Bob Hope-Burbank
United States
More flights between these airports :: More routes between these airports
Route: +OCN V23 POPPR SMO125 SMO SMO311 SILEX
File this flight plan on PilotEdge
Remarks:
Altitude:
(Current/Filed)
6,000ft
Speed:
(Current/Filed)
120kts
Departed: 26-Sep-18 09:07 AM
Arrived: 26-Sep-18 09:58 AM
Distance/Time
Traveled:
73nm/0:51
Distance/Time
To Go:
Arrived

Flight Plot

Page will automatically refresh every two minutes.

Flight plan parsing failed; only flown route is shown


Map Options




Map Legend


Flown Route
Filed Route
Departure Airport
Arrival Airport
Navaid (VOR, NDB)
Fix

Horizontal Profiles

Position Reports

Time Latitude Longitude Heading Altitude Ground
Speed
26-Sep-18 08:58 33.300646 -117.350790 131 81ft 0kts
26-Sep-18 08:59 33.300645 -117.350789 131 81ft 0kts
26-Sep-18 09:00 33.300644 -117.350787 131 81ft 0kts
26-Sep-18 09:01 33.300643 -117.350786 131 81ft 0kts
26-Sep-18 09:02 33.300642 -117.350785 131 81ft 0kts
26-Sep-18 09:03 33.300641 -117.350784 131 81ft 0kts
26-Sep-18 09:04 33.300641 -117.350783 131 81ft 0kts
26-Sep-18 09:05 33.300640 -117.350782 131 81ft 0kts
26-Sep-18 09:06 33.300639 -117.350781 131 81ft 0kts
26-Sep-18 09:07 33.300638 -117.350780 131 81ft 0kts
26-Sep-18 09:08 33.304620 -117.348691 33 81ft 15kts
26-Sep-18 09:09 33.305939 -117.349657 221 81ft 41kts
26-Sep-18 09:10 33.291798 -117.366319 209 923ft 85kts
26-Sep-18 09:11 33.269761 -117.386277 223 1856ft 112kts
26-Sep-18 09:12 33.247408 -117.414854 258 2725ft 122kts
26-Sep-18 09:13 33.265262 -117.446600 317 3626ft 120kts
26-Sep-18 09:14 33.289237 -117.474488 318 4505ft 120kts
26-Sep-18 09:15 33.312836 -117.501975 319 5397ft 117kts
26-Sep-18 09:16 33.336540 -117.529541 319 6025ft 134kts
26-Sep-18 09:17 33.365338 -117.563049 318 6021ft 147kts
26-Sep-18 09:18 33.394676 -117.597337 318 6018ft 147kts
26-Sep-18 09:19 33.423390 -117.630915 318 6007ft 148kts
26-Sep-18 09:20 33.452843 -117.665388 319 5997ft 148kts
26-Sep-18 09:21 33.482247 -117.699882 319 5998ft 148kts
26-Sep-18 09:22 33.511670 -117.734438 319 5997ft 148kts
26-Sep-18 09:23 33.541104 -117.769011 319 5995ft 148kts
26-Sep-18 09:24 33.570627 -117.803712 319 5995ft 148kts
26-Sep-18 09:25 33.596343 -117.840716 302 5994ft 150kts
26-Sep-18 09:26 33.617115 -117.884296 302 5993ft 150kts
26-Sep-18 09:27 33.638025 -117.927839 302 5992ft 150kts
26-Sep-18 09:28 33.658738 -117.971708 302 5993ft 151kts
26-Sep-18 09:29 33.679251 -118.014199 301 5992ft 151kts
26-Sep-18 09:30 33.699922 -118.058155 303 5992ft 151kts
26-Sep-18 09:31 33.720834 -118.102198 302 5993ft 151kts
26-Sep-18 09:32 33.741648 -118.146009 302 5994ft 151kts
26-Sep-18 09:33 33.761479 -118.187611 302 5296ft 141kts
26-Sep-18 09:34 33.785003 -118.222392 317 4575ft 126kts
26-Sep-18 09:35 33.809591 -118.252104 317 4027ft 132kts
26-Sep-18 09:36 33.833865 -118.281114 318 4027ft 114kts
26-Sep-18 09:37 33.860748 -118.311880 320 4007ft 127kts
26-Sep-18 09:38 33.887541 -118.338659 323 4029ft 119kts
26-Sep-18 09:39 33.914994 -118.363965 325 3995ft 123kts
26-Sep-18 09:40 33.941306 -118.389211 322 3998ft 120kts
26-Sep-18 09:41 33.967955 -118.415361 324 3987ft 119kts
26-Sep-18 09:42 33.992199 -118.438354 324 4013ft 124kts
26-Sep-18 09:43 34.018888 -118.469080 313 4005ft 131kts
26-Sep-18 09:44 34.042492 -118.502679 312 4006ft 123kts
26-Sep-18 09:45 34.066192 -118.536080 313 4008ft 133kts
26-Sep-18 09:46 34.088890 -118.568653 312 4005ft 117kts
26-Sep-18 09:47 34.109989 -118.598871 312 4004ft 118kts
26-Sep-18 09:48 34.131914 -118.630185 312 4014ft 122kts
26-Sep-18 09:49 34.163517 -118.642454 352 3993ft 121kts
26-Sep-18 09:50 34.194596 -118.648771 359 3997ft 113kts
26-Sep-18 09:51 34.201428 -118.619902 93 4005ft 110kts
26-Sep-18 09:52 34.200124 -118.585493 88 4009ft 101kts
26-Sep-18 09:53 34.199545 -118.552461 90 3989ft 90kts
26-Sep-18 09:54 34.199969 -118.521871 94 3446ft 89kts
26-Sep-18 09:55 34.199473 -118.491537 89 2727ft 89kts
26-Sep-18 09:56 34.198619 -118.462591 87 2247ft 85kts
26-Sep-18 09:57 34.199539 -118.433053 91 1873ft 93kts
26-Sep-18 09:58 34.198478 -118.403386 89 1316ft 81kts
26-Sep-18 09:59 34.198133 -118.377138 91 899ft 82kts
26-Sep-18 10:00 34.197334 -118.360224 185 724ft 0kts
26-Sep-18 10:01 34.195779 -118.360188 113 724ft 0kts
26-Sep-18 10:02 34.195779 -118.360188 113 724ft 0kts
26-Sep-18 10:03 34.195779 -118.360188 113 724ft 0kts
26-Sep-18 10:04 34.195779 -118.360188 113 724ft 0kts
26-Sep-18 10:05 34.195779 -118.360188 113 724ft 0kts
26-Sep-18 10:06 34.195779 -118.360188 113 724ft 0kts
26-Sep-18 10:07 34.195779 -118.360188 113 724ft 0kts
26-Sep-18 10:08 34.195779 -118.360188 113 724ft 0kts
26-Sep-18 10:09 34.195779 -118.360188 113 724ft 0kts
26-Sep-18 10:10 34.195779 -118.360188 113 724ft 0kts
26-Sep-18 10:11 34.195779 -118.360188 113 724ft 0kts

Navigation Log

Ident Type
Flight plan parsing failed, navigation log unavailable